Time;durP1;ratioP1;P1;durP2;ratioP2;P2;SDS_P1;SDS_P2;PMS_P1;PMS_P2;Temp;Humidity;BMP_temperature;BMP_pressure;BME280_temperature;BME280_humidity;BME280_pressure;Samples;Min_cycle;Max_cycle;Signal;HPM_P1;HPM_P2
2022/11/03 00:00:27;;;;;;;2.40;1.40;;;11.40;99.90;;;;;;5092465;28;20427;-78
2022/11/03 00:02:52;;;;;;;1.60;1.27;;;11.40;99.90;;;;;;5093652;28;20055;-78
2022/11/03 00:08:03;;;;;;;1.60;1.20;;;11.40;99.90;;;;;;5094062;28;20058;-78
2022/11/03 00:10:29;;;;;;;1.52;1.20;;;11.40;99.90;;;;;;5091957;28;20024;-78
2022/11/03 00:12:55;;;;;;;1.67;1.40;;;11.30;99.90;;;;;;5091975;28;20035;-78
2022/11/03 00:15:21;;;;;;;1.60;1.50;;;11.30;99.90;;;;;;5092084;28;20028;-78
2022/11/03 00:17:47;;;;;;;2.58;1.40;;;11.30;99.90;;;;;;5092999;28;20062;-78
2022/11/03 00:20:12;;;;;;;1.15;1.05;;;11.30;99.90;;;;;;5091896;28;20020;-78
2022/11/03 00:22:38;;;;;;;1.35;0.95;;;11.40;99.90;;;;;;5086808;28;20036;-78
2022/11/03 00:25:04;;;;;;;1.90;1.30;;;11.40;99.90;;;;;;5072381;28;20029;-78
2022/11/03 00:27:30;;;;;;;1.15;1.05;;;11.30;99.90;;;;;;5073003;28;20031;-78
2022/11/03 00:29:56;;;;;;;2.92;1.38;;;11.40;99.90;;;;;;5091330;28;20020;-78
2022/11/03 00:32:21;;;;;;;1.50;1.27;;;11.40;99.90;;;;;;5093251;28;20469;-78
2022/11/03 00:34:47;;;;;;;1.00;0.90;;;11.40;99.90;;;;;;5092850;28;20028;-78
2022/11/03 00:37:13;;;;;;;2.33;1.35;;;11.40;99.90;;;;;;5093100;28;20028;-78
2022/11/03 00:39:38;;;;;;;0.95;0.85;;;11.50;99.90;;;;;;5091670;28;20032;-78
2022/11/03 00:42:04;;;;;;;1.10;1.00;;;11.40;99.90;;;;;;5103824;28;20382;-78
2022/11/03 00:44:30;;;;;;;1.92;1.33;;;11.50;99.90;;;;;;5113444;28;20431;-78
2022/11/03 00:46:55;;;;;;;2.25;1.27;;;11.30;99.90;;;;;;5111860;28;20020;-78
2022/11/03 00:49:21;;;;;;;1.52;1.42;;;11.20;99.90;;;;;;5108725;28;20020;-78
2022/11/03 00:51:47;;;;;;;1.13;1.00;;;11.30;99.90;;;;;;5092739;28;20016;-78
2022/11/03 00:54:12;;;;;;;1.73;1.15;;;11.50;99.90;;;;;;5093015;28;20595;-78
2022/11/03 00:56:40;;;;;;;1.15;1.05;;;11.60;99.90;;;;;;5091264;28;20109;-78
2022/11/03 00:59:08;;;;;;;1.75;1.20;;;11.80;99.90;;;;;;5092811;28;20028;-78
2022/11/03 01:01:42;;;;;;;1.45;1.00;;;11.70;99.90;;;;;;5092719;28;20020;-78
2022/11/03 01:06:55;;;;;;;1.27;0.90;;;11.70;99.90;;;;;;5093154;28;20043;-78
2022/11/03 01:09:42;;;;;;;1.10;0.90;;;11.60;99.90;;;;;;5091154;28;20035;-78
2022/11/03 01:12:16;;;;;;;2.28;1.20;;;11.70;99.90;;;;;;5091032;28;20016;-78
2022/11/03 01:14:52;;;;;;;1.63;1.00;;;11.60;99.90;;;;;;5091192;28;20051;-78
2022/11/03 01:17:27;;;;;;;1.65;1.23;;;11.60;99.90;;;;;;5092057;28;20024;-78
2022/11/03 01:19:53;;;;;;;1.20;1.10;;;11.70;99.90;;;;;;5092015;28;20046;-78
2022/11/03 01:22:20;;;;;;;1.77;1.02;;;11.60;99.90;;;;;;5088818;28;20052;-78
2022/11/03 01:24:46;;;;;;;1.00;0.85;;;11.60;99.90;;;;;;5072170;28;20074;-78
2022/11/03 01:27:17;;;;;;;0.88;0.88;;;11.70;99.90;;;;;;5072273;28;20021;-78
2022/11/03 01:29:43;;;;;;;0.93;0.70;;;11.60;99.90;;;;;;5088548;28;20035;-78
2022/11/03 01:32:09;;;;;;;1.00;0.90;;;11.50;99.90;;;;;;5092250;28;20100;-78
2022/11/03 01:34:35;;;;;;;0.80;0.80;;;11.50;99.90;;;;;;5091982;28;20046;-78
2022/11/03 01:37:01;;;;;;;0.70;0.63;;;11.50;99.90;;;;;;5092572;28;20028;-78
2022/11/03 01:39:27;;;;;;;0.82;0.82;;;11.40;99.90;;;;;;5092386;28;20464;-78
2022/11/03 01:41:52;;;;;;;1.77;0.93;;;11.30;99.90;;;;;;5101420;28;20492;-78
2022/11/03 01:44:18;;;;;;;1.92;0.80;;;11.30;99.90;;;;;;5112533;28;20088;-78
2022/11/03 01:46:58;;;;;;;1.40;0.80;;;11.40;99.90;;;;;;5112280;28;20561;-78
2022/11/03 01:49:30;;;;;;;1.13;0.90;;;11.40;99.90;;;;;;5107979;28;20499;-78
2022/11/03 01:52:18;;;;;;;1.55;0.80;;;11.50;99.90;;;;;;5092381;28;20278;-78
2022/11/03 01:54:49;;;;;;;1.00;1.00;;;11.40;99.90;;;;;;5092029;28;20039;-78
2022/11/03 01:57:21;;;;;;;0.85;0.70;;;11.20;99.90;;;;;;5091959;28;20520;-78
2022/11/03 01:59:47;;;;;;;0.60;0.60;;;11.10;99.90;;;;;;5092347;28;20024;-78
2022/11/03 02:02:13;;;;;;;1.33;0.80;;;11.30;99.90;;;;;;5090164;28;20169;-78
2022/11/03 02:04:40;;;;;;;1.58;1.08;;;11.40;99.90;;;;;;5092233;28;20107;-78
2022/11/03 02:07:25;;;;;;;1.02;0.63;;;11.30;99.90;;;;;;5091684;28;20028;-78
2022/11/03 02:09:51;;;;;;;0.90;0.90;;;11.30;99.90;;;;;;5091794;28;20028;-78
2022/11/03 02:12:20;;;;;;;2.65;0.90;;;11.20;99.90;;;;;;5091969;28;20027;-78
2022/11/03 02:15:08;;;;;;;0.80;0.80;;;11.20;99.90;;;;;;5090157;28;20066;-78
2022/11/03 02:17:36;;;;;;;0.80;0.60;;;11.20;99.90;;;;;;5091600;28;20504;-78
2022/11/03 02:20:01;;;;;;;1.00;0.80;;;11.10;99.90;;;;;;5091882;28;20016;-78
2022/11/03 02:22:54;;;;;;;0.82;0.70;;;11.20;99.90;;;;;;5087153;28;20041;-78
2022/11/03 02:25:45;;;;;;;1.65;0.57;;;11.20;99.90;;;;;;5071628;28;20024;-78
2022/11/03 02:28:13;;;;;;;0.75;0.75;;;11.20;99.90;;;;;;5075270;28;20091;-78
2022/11/03 02:30:44;;;;;;;0.73;0.73;;;11.20;99.90;;;;;;5091600;28;20114;-78
2022/11/03 02:33:21;;;;;;;1.90;0.80;;;11.20;99.90;;;;;;5091610;28;20497;-78
2022/11/03 02:36:01;;;;;;;0.88;0.55;;;11.30;99.90;;;;;;5091902;28;20081;-78
2022/11/03 02:38:30;;;;;;;1.00;0.90;;;11.20;99.90;;;;;;5091944;28;20047;-78
2022/11/03 02:41:00;;;;;;;0.88;0.88;;;11.20;99.90;;;;;;5091358;28;20062;-78
2022/11/03 02:43:28;;;;;;;0.82;0.80;;;11.40;99.90;;;;;;5112076;28;20022;-78
2022/11/03 02:45:55;;;;;;;1.38;1.08;;;11.40;99.90;;;;;;5111657;28;20058;-78
2022/11/03 02:48:21;;;;;;;0.60;0.60;;;11.60;99.90;;;;;;5114794;28;20020;-78
2022/11/03 02:50:50;;;;;;;0.60;0.60;;;11.60;99.90;;;;;;5115658;28;20031;-78
2022/11/03 02:53:16;;;;;;;0.80;0.80;;;11.60;99.90;;;;;;5114312;28;20019;-78
2022/11/03 02:55:47;;;;;;;2.00;1.20;;;11.80;99.90;;;;;;5115457;28;20073;-78
2022/11/03 02:58:51;;;;;;;1.02;0.90;;;11.80;99.90;;;;;;5115788;28;20119;-78
2022/11/03 03:01:20;;;;;;;1.20;0.90;;;11.90;99.90;;;;;;5051977;28;20581;-78
2022/11/03 03:04:01;;;;;;;2.15;1.35;;;11.80;99.90;;;;;;5052108;28;20526;-78
2022/11/03 03:06:35;;;;;;;0.82;0.82;;;11.90;99.90;;;;;;5052199;28;20053;-78
2022/11/03 03:09:08;;;;;;;1.48;0.88;;;11.90;99.90;;;;;;5052247;28;20029;-78
2022/11/03 03:11:36;;;;;;;0.75;0.75;;;11.90;99.90;;;;;;5051657;28;20049;-78
2022/11/03 03:14:13;;;;;;;1.02;0.85;;;11.90;99.90;;;;;;5046173;28;20033;-78
2022/11/03 03:16:58;;;;;;;0.57;0.55;;;11.90;99.90;;;;;;5031681;28;20033;-78
2022/11/03 03:19:54;;;;;;;1.83;0.95;;;11.80;99.90;;;;;;5031959;28;20025;-78
2022/11/03 03:22:34;;;;;;;0.82;0.75;;;11.90;99.90;;;;;;5029659;28;20148;-78
2022/11/03 03:25:10;;;;;;;1.65;1.20;;;11.90;99.90;;;;;;4995849;28;20499;-78
2022/11/03 03:27:40;;;;;;;0.63;0.60;;;12.00;99.90;;;;;;5012174;28;20057;-78
2022/11/03 03:30:07;;;;;;;0.82;0.73;;;12.10;99.90;;;;;;5030821;28;20044;-78
2022/11/03 03:32:48;;;;;;;1.10;0.98;;;12.10;99.90;;;;;;5031698;28;20030;-78
2022/11/03 03:35:22;;;;;;;1.10;0.98;;;12.10;99.90;;;;;;5032013;28;20021;-78
2022/11/03 03:37:53;;;;;;;1.63;0.70;;;12.20;99.90;;;;;;5069187;28;20058;-78
2022/11/03 03:40:49;;;;;;;2.42;1.10;;;12.40;99.90;;;;;;5087988;28;20035;-78
2022/11/03 03:43:15;;;;;;;0.85;0.85;;;12.40;99.90;;;;;;5076901;28;20501;-78
2022/11/03 03:45:44;;;;;;;1.00;0.90;;;12.60;99.90;;;;;;5076449;28;20036;-78
2022/11/03 03:48:10;;;;;;;0.70;0.70;;;12.50;99.90;;;;;;5073393;28;20489;-78
2022/11/03 03:50:38;;;;;;;1.45;0.90;;;12.60;99.90;;;;;;5078613;28;20039;-78
2022/11/03 03:53:08;;;;;;;1.40;0.80;;;12.60;99.90;;;;;;5073889;28;20133;-78
2022/11/03 03:55:40;;;;;;;1.80;1.17;;;12.70;99.90;;;;;;5073519;28;20027;-78
2022/11/03 03:58:09;;;;;;;2.67;1.08;;;12.70;99.90;;;;;;5077635;28;20032;-78
2022/11/03 04:00:34;;;;;;;1.30;1.00;;;12.60;99.90;;;;;;5072043;28;20567;-78
2022/11/03 04:03:00;;;;;;;1.30;0.90;;;12.70;99.90;;;;;;5073494;28;20052;-78
2022/11/03 04:05:26;;;;;;;1.20;0.90;;;12.90;99.90;;;;;;5073468;28;20020;-78
2022/11/03 04:07:52;;;;;;;0.98;0.80;;;12.80;99.90;;;;;;5071952;28;20077;-78
2022/11/03 04:10:20;;;;;;;2.65;1.00;;;12.90;99.90;;;;;;5071780;28;20473;-78
2022/11/03 04:23:44;;;;;;;1.70;1.33;;;13.20;99.90;;;;;;5073006;28;20410;-78
2022/11/03 04:26:15;;;;;;;2.10;1.38;;;13.20;99.90;;;;;;5072768;28;20021;-78
2022/11/03 04:28:42;;;;;;;2.33;1.60;;;13.20;99.90;;;;;;5071658;28;20029;-78
2022/11/03 04:31:15;;;;;;;2.35;1.20;;;13.30;99.90;;;;;;5071448;28;20025;-78
2022/11/03 04:33:41;;;;;;;1.40;1.30;;;13.40;99.90;;;;;;5072983;28;20024;-78
2022/11/03 04:36:19;;;;;;;2.25;1.10;;;13.30;99.90;;;;;;5072962;28;20020;-78
2022/11/03 04:38:46;;;;;;;1.67;1.40;;;13.30;99.90;;;;;;5073178;28;20047;-78
2022/11/03 04:41:28;;;;;;;2.03;1.13;;;13.40;99.90;;;;;;5077177;28;20082;-78
2022/11/03 04:43:55;;;;;;;1.52;1.40;;;13.40;99.90;;;;;;5072777;28;20070;-78
2022/11/03 04:46:26;;;;;;;2.30;1.38;;;13.40;99.90;;;;;;5072555;28;20025;-78
2022/11/03 04:48:53;;;;;;;1.85;1.23;;;13.30;99.90;;;;;;5072904;28;20032;-78
2022/11/03 04:51:22;;;;;;;1.20;1.10;;;13.30;99.90;;;;;;5092810;28;20024;-78
2022/11/03 04:54:02;;;;;;;2.42;1.13;;;13.40;99.90;;;;;;5092907;28;20122;-78
2022/11/03 04:56:29;;;;;;;2.38;1.45;;;13.40;99.90;;;;;;5092400;28;20107;-78
2022/11/03 04:58:56;;;;;;;2.78;1.10;;;13.40;99.90;;;;;;5092860;28;20035;-78
2022/11/03 05:01:23;;;;;;;1.73;1.30;;;13.30;99.90;;;;;;5092886;28;20034;-78
2022/11/03 05:03:52;;;;;;;1.73;1.52;;;13.30;99.90;;;;;;5091226;28;20032;-78
2022/11/03 05:06:28;;;;;;;1.30;1.20;;;13.30;99.90;;;;;;5092595;28;20039;-78
2022/11/03 05:09:09;;;;;;;3.00;1.20;;;13.30;99.90;;;;;;5092624;28;20099;-78
2022/11/03 05:11:41;;;;;;;1.67;1.15;;;13.40;99.90;;;;;;5091742;28;20051;-78
2022/11/03 05:14:26;;;;;;;2.22;1.40;;;13.40;99.90;;;;;;5092712;28;20028;-78
2022/11/03 05:16:53;;;;;;;1.52;1.30;;;13.40;99.90;;;;;;5080161;28;20029;-78
2022/11/03 05:19:32;;;;;;;1.45;1.35;;;13.40;99.90;;;;;;5087864;28;20131;-78
2022/11/03 05:22:00;;;;;;;2.17;1.23;;;13.40;99.90;;;;;;5071840;28;20037;-78
2022/11/03 05:24:26;;;;;;;3.50;1.73;;;13.30;99.90;;;;;;5070604;28;20049;-78
2022/11/03 05:26:55;;;;;;;1.30;1.20;;;13.30;99.90;;;;;;5072364;28;20017;-78
2022/11/03 05:29:34;;;;;;;1.13;1.00;;;13.40;99.90;;;;;;5072297;28;20039;-78
2022/11/03 05:32:00;;;;;;;3.08;1.38;;;13.30;99.90;;;;;;5071847;28;20013;-78
2022/11/03 05:34:29;;;;;;;1.42;1.33;;;13.40;99.90;;;;;;5071827;28;20012;-78
2022/11/03 05:36:59;;;;;;;1.65;1.13;;;13.50;99.90;;;;;;5071738;28;20028;-78
2022/11/03 05:39:36;;;;;;;1.77;1.40;;;13.50;99.90;;;;;;5072476;28;20082;-78
2022/11/03 05:42:21;;;;;;;1.45;1.05;;;13.50;99.90;;;;;;5091394;28;20069;-78
2022/11/03 05:44:47;;;;;;;1.90;1.45;;;13.50;99.90;;;;;;5091710;28;20028;-78
2022/11/03 05:47:24;;;;;;;1.20;1.10;;;13.40;99.90;;;;;;5091910;28;20028;-78
2022/11/03 05:49:54;;;;;;;1.85;1.33;;;13.40;99.90;;;;;;5092350;28;20097;-78
2022/11/03 05:52:24;;;;;;;1.47;1.07;;;13.40;99.90;;;;;;5091889;28;20016;-78
2022/11/03 05:54:54;;;;;;;1.60;1.10;;;13.50;99.90;;;;;;5092485;28;20062;-78
2022/11/03 05:57:20;;;;;;;1.13;1.00;;;13.50;99.90;;;;;;5090612;28;20057;-78
2022/11/03 05:59:48;;;;;;;1.40;1.17;;;13.50;99.90;;;;;;5090545;28;20016;-78
2022/11/03 06:02:37;;;;;;;1.67;1.38;;;13.70;99.90;;;;;;5091822;28;20024;-78
2022/11/03 06:05:19;;;;;;;1.40;1.30;;;13.60;99.90;;;;;;5092227;28;20032;-78
2022/11/03 06:07:44;;;;;;;1.30;1.20;;;13.60;99.90;;;;;;5091673;28;20024;-78
2022/11/03 06:10:40;;;;;;;1.73;1.30;;;13.60;99.90;;;;;;5090656;28;20034;-78
2022/11/03 06:13:36;;;;;;;1.75;1.38;;;13.70;99.90;;;;;;5090063;28;20032;-78
2022/11/03 06:16:31;;;;;;;2.25;1.08;;;13.80;99.90;;;;;;5062907;28;20094;-78
2022/11/03 06:19:00;;;;;;;1.55;1.45;;;13.70;99.90;;;;;;5066192;28;20052;-78
2022/11/03 06:21:26;;;;;;;2.05;1.55;;;13.80;99.90;;;;;;5070298;28;20048;-78
2022/11/03 06:23:53;;;;;;;2.22;1.80;;;13.80;99.90;;;;;;5074951;28;20498;-78
2022/11/03 06:26:26;;;;;;;3.20;1.88;;;13.70;99.90;;;;;;5075426;28;20208;-78
2022/11/03 06:28:52;;;;;;;2.03;1.40;;;13.70;99.90;;;;;;5075399;28;20012;-78
2022/11/03 06:31:30;;;;;;;2.88;1.40;;;13.70;99.90;;;;;;5073853;28;20047;-78
2022/11/03 06:33:57;;;;;;;2.10;1.50;;;13.70;99.90;;;;;;5075302;28;20186;-78
2022/11/03 06:36:33;;;;;;;1.30;1.20;;;13.70;99.90;;;;;;5075009;28;20078;-78
2022/11/03 06:39:08;;;;;;;1.80;1.55;;;13.70;99.90;;;;;;5075326;28;20020;-78
2022/11/03 06:41:35;;;;;;;2.25;1.48;;;13.70;99.90;;;;;;5088747;28;20020;-78
2022/11/03 06:44:14;;;;;;;1.60;1.50;;;13.60;99.90;;;;;;5093630;28;20493;-78
2022/11/03 06:46:40;;;;;;;2.13;1.23;;;13.60;99.90;;;;;;5095115;28;20125;-78
2022/11/03 06:49:27;;;;;;;2.20;1.40;;;13.60;99.90;;;;;;5093697;28;20555;-78
2022/11/03 06:51:54;;;;;;;2.35;1.80;;;13.60;99.90;;;;;;5095329;28;20103;-78
2022/11/03 06:54:19;;;;;;;2.05;1.50;;;13.60;99.90;;;;;;5095322;28;20470;-78
2022/11/03 06:56:45;;;;;;;1.55;1.45;;;13.70;99.90;;;;;;5095000;28;20028;-78
2022/11/03 06:59:14;;;;;;;1.83;1.27;;;13.70;99.90;;;;;;5095123;28;20020;-78
2022/11/03 07:01:40;;;;;;;1.33;1.20;;;13.80;99.90;;;;;;5093074;28;20035;-78
2022/11/03 07:04:17;;;;;;;1.98;1.75;;;13.80;99.90;;;;;;5094914;28;20024;-78
2022/11/03 07:06:43;;;;;;;2.10;1.45;;;13.80;99.90;;;;;;5095116;28;20059;-78
2022/11/03 07:09:15;;;;;;;2.55;1.20;;;13.80;99.90;;;;;;5094464;28;20025;-78
2022/11/03 07:11:46;;;;;;;1.80;1.50;;;13.80;99.90;;;;;;5093116;28;20035;-78
2022/11/03 07:14:18;;;;;;;3.00;1.55;;;13.90;99.90;;;;;;5093260;28;20028;-78
2022/11/03 07:16:47;;;;;;;2.22;1.27;;;13.90;99.90;;;;;;5094635;28;20071;-78
2022/11/03 07:19:22;;;;;;;2.33;2.05;;;13.90;99.90;;;;;;5094281;28;20418;-78
2022/11/03 07:21:50;;;;;;;2.30;1.50;;;13.90;99.90;;;;;;5093234;28;20028;-78
2022/11/03 07:24:28;;;;;;;2.50;1.52;;;13.90;99.90;;;;;;5093022;28;20067;-78
2022/11/03 07:27:25;;;;;;;1.75;1.42;;;14.00;99.90;;;;;;5093114;28;20107;-77
2022/11/03 07:29:56;;;;;;;1.25;1.15;;;14.00;99.90;;;;;;5094542;28;20509;-78
2022/11/03 07:32:32;;;;;;;1.80;1.50;;;14.00;99.90;;;;;;5093688;28;20030;-78
2022/11/03 07:35:23;;;;;;;3.08;1.50;;;14.00;99.90;;;;;;5094147;28;20031;-78
2022/11/03 07:37:51;;;;;;;2.45;1.75;;;14.00;99.90;;;;;;5094068;28;20031;-78
2022/11/03 07:40:25;;;;;;;1.67;1.58;;;14.00;99.90;;;;;;5094481;28;20020;-78
2022/11/03 07:42:54;;;;;;;2.72;1.75;;;14.10;99.90;;;;;;5101095;28;20035;-78
2022/11/03 07:45:36;;;;;;;1.75;1.48;;;14.10;99.90;;;;;;5093833;28;20130;-78
2022/11/03 07:48:14;;;;;;;3.15;1.75;;;14.10;99.90;;;;;;5092065;28;20020;-78
2022/11/03 07:50:40;;;;;;;2.72;1.70;;;14.10;99.90;;;;;;5092478;28;20024;-78
2022/11/03 07:53:58;;;;;;;2.45;1.80;;;14.20;99.90;;;;;;5094170;28;20565;-78
2022/11/03 07:56:32;;;;;;;2.28;1.70;;;14.20;99.90;;;;;;4972688;28;20046;-78
2022/11/03 07:59:10;;;;;;;2.45;1.70;;;14.20;99.90;;;;;;4972682;28;20065;-78
2022/11/03 08:01:40;;;;;;;3.28;1.73;;;14.20;99.90;;;;;;4972632;28;20068;-78
2022/11/03 08:04:10;;;;;;;4.07;1.90;;;14.20;99.90;;;;;;4972025;28;20109;-78
2022/11/03 08:06:36;;;;;;;2.13;1.88;;;14.30;99.90;;;;;;4972039;28;20030;-78
2022/11/03 08:09:02;;;;;;;1.95;1.73;;;14.30;99.90;;;;;;4972424;28;20030;-78
2022/11/03 08:11:27;;;;;;;2.22;1.77;;;14.30;99.90;;;;;;4972152;28;20034;-78
2022/11/03 08:13:53;;;;;;;2.45;1.80;;;14.40;99.90;;;;;;4972030;28;20038;-78
2022/11/03 08:16:19;;;;;;;4.55;2.30;;;14.40;99.90;;;;;;4955955;28;20058;-78
2022/11/03 08:18:45;;;;;;;2.33;1.85;;;14.40;99.90;;;;;;4971675;28;20500;-78
2022/11/03 08:21:11;;;;;;;3.45;2.25;;;14.40;99.90;;;;;;4972074;28;20039;-78
2022/11/03 08:23:37;;;;;;;3.35;1.98;;;14.40;99.90;;;;;;4971747;28;20141;-78
2022/11/03 08:26:03;;;;;;;3.13;1.98;;;14.50;99.90;;;;;;4955900;28;20174;-78
2022/11/03 08:28:29;;;;;;;2.63;1.98;;;14.50;99.90;;;;;;4955725;28;20114;-78
2022/11/03 08:31:00;;;;;;;3.42;2.28;;;14.60;99.90;;;;;;4975683;28;20030;-78
2022/11/03 08:33:27;;;;;;;3.93;2.10;;;14.60;99.90;;;;;;5073952;28;20046;-78
2022/11/03 08:35:53;;;;;;;5.15;2.58;;;14.50;99.90;;;;;;5093289;28;20028;-78
2022/11/03 08:38:20;;;;;;;2.75;1.88;;;14.60;99.90;;;;;;5093048;28;20016;-78
2022/11/03 08:40:46;;;;;;;2.67;1.95;;;14.70;99.90;;;;;;5093435;28;20024;-78
2022/11/03 08:43:11;;;;;;;3.83;2.35;;;14.70;99.90;;;;;;5098186;28;20568;-78
2022/11/03 08:45:37;;;;;;;2.75;2.15;;;14.80;99.90;;;;;;5092086;28;20508;-78
2022/11/03 08:48:03;;;;;;;3.28;2.40;;;14.90;99.90;;;;;;5092592;28;20445;-78
2022/11/03 08:50:29;;;;;;;2.60;2.30;;;14.90;99.90;;;;;;5093071;28;20027;-78
2022/11/03 08:52:54;;;;;;;4.53;2.20;;;14.90;99.90;;;;;;5091441;28;20031;-78
2022/11/03 08:55:20;;;;;;;2.83;1.80;;;14.90;99.90;;;;;;5093105;28;20032;-78
2022/11/03 08:57:46;;;;;;;4.90;2.30;;;14.90;99.90;;;;;;5091284;28;20543;-78
2022/11/03 09:00:13;;;;;;;2.45;2.25;;;15.00;99.90;;;;;;5092701;28;20488;-78
2022/11/03 09:02:38;;;;;;;2.58;2.20;;;15.00;99.90;;;;;;5092518;28;20036;-79
2022/11/03 09:05:06;;;;;;;2.67;2.25;;;15.00;99.90;;;;;;5091100;28;20486;-78
2022/11/03 09:07:32;;;;;;;3.78;2.25;;;15.00;99.90;;;;;;5092782;28;20012;-78
2022/11/03 09:09:58;;;;;;;2.50;2.25;;;14.90;99.90;;;;;;5092704;28;20035;-78
2022/11/03 09:12:23;;;;;;;5.05;2.47;;;15.00;99.90;;;;;;5092061;28;20579;-78
2022/11/03 09:14:49;;;;;;;3.72;2.35;;;15.00;99.90;;;;;;5092492;28;20034;-78
2022/11/03 09:17:15;;;;;;;3.83;2.28;;;15.00;99.90;;;;;;5092279;28;20016;-78
2022/11/03 09:19:40;;;;;;;3.63;2.38;;;15.00;99.90;;;;;;5090763;28;20470;-79
2022/11/03 09:22:06;;;;;;;3.17;2.40;;;15.00;99.90;;;;;;5092569;28;20488;-78
2022/11/03 09:24:32;;;;;;;3.88;2.65;;;15.00;99.90;;;;;;5092520;28;20028;-78
2022/11/03 09:26:57;;;;;;;3.10;2.28;;;15.10;99.90;;;;;;5092512;28;20486;-78
2022/11/03 09:29:23;;;;;;;3.22;2.42;;;15.20;99.90;;;;;;5091010;28;20111;-78
2022/11/03 09:31:49;;;;;;;2.75;2.00;;;15.30;99.90;;;;;;5092401;28;20042;-78
2022/11/03 09:34:14;;;;;;;2.72;1.88;;;15.40;99.90;;;;;;5091826;28;20050;-77
2022/11/03 09:36:40;;;;;;;3.10;2.55;;;15.60;99.90;;;;;;5092329;28;20024;-77
2022/11/03 09:39:06;;;;;;;3.00;2.67;;;15.80;99.90;;;;;;5090806;28;20110;-77
2022/11/03 09:41:31;;;;;;;2.60;2.10;;;15.90;99.90;;;;;;5098472;28;20023;-77
2022/11/03 09:43:59;;;;;;;2.38;2.17;;;15.80;99.90;;;;;;5092448;28;20063;-77
2022/11/03 09:46:27;;;;;;;4.70;2.60;;;15.90;99.90;;;;;;5092370;28;20013;-78
2022/11/03 09:48:54;;;;;;;4.32;2.45;;;15.80;99.90;;;;;;5090298;28;20036;-78
2022/11/03 09:51:21;;;;;;;3.03;2.45;;;15.70;99.90;;;;;;5092206;28;20021;-78
2022/11/03 09:53:47;;;;;;;4.65;3.10;;;15.70;99.90;;;;;;5092218;28;20556;-78
2022/11/03 09:56:15;;;;;;;3.78;2.60;;;15.70;99.90;;;;;;5091683;28;20024;-78
2022/11/03 09:58:41;;;;;;;2.97;2.53;;;15.70;99.90;;;;;;5095896;28;20077;-78
2022/11/03 10:01:09;;;;;;;4.00;2.55;;;15.60;99.90;;;;;;5096061;28;20427;-78
2022/11/03 10:03:35;;;;;;;3.30;2.38;;;15.70;99.90;;;;;;5095706;28;20034;-78
2022/11/03 10:06:01;;;;;;;3.88;2.88;;;15.70;99.90;;;;;;5096191;28;20091;-78
2022/11/03 10:08:31;;;;;;;4.43;2.88;;;15.70;99.90;;;;;;5096279;28;20095;-78
2022/11/03 10:10:57;;;;;;;4.30;2.65;;;15.70;99.90;;;;;;5095696;28;20020;-78
2022/11/03 10:13:32;;;;;;;3.53;2.40;;;15.80;99.90;;;;;;5095541;28;20024;-78
2022/11/03 10:16:00;;;;;;;5.53;2.90;;;15.80;99.90;;;;;;5094611;28;20443;-78
2022/11/03 10:18:27;;;;;;;4.13;2.75;;;15.80;99.90;;;;;;5095560;28;20027;-78
2022/11/03 10:20:53;;;;;;;4.10;2.70;;;15.80;99.90;;;;;;5095640;28;20021;-78
2022/11/03 10:23:19;;;;;;;2.88;2.63;;;15.80;99.90;;;;;;5094240;28;20048;-78
2022/11/03 10:25:46;;;;;;;3.55;2.38;;;15.80;99.90;;;;;;5094207;28;20031;-78
2022/11/03 10:28:23;;;;;;;4.70;2.63;;;15.80;99.90;;;;;;5095601;28;20049;-78
2022/11/03 10:30:51;;;;;;;3.05;2.75;;;15.80;99.90;;;;;;5094215;28;20024;-78
2022/11/03 10:33:51;;;;;;;4.38;3.03;;;15.80;99.90;;;;;;5095235;28;20032;-78
2022/11/03 10:36:16;;;;;;;6.07;2.78;;;15.80;99.90;;;;;;5095265;28;20028;-78
2022/11/03 10:38:43;;;;;;;2.65;2.40;;;15.70;99.90;;;;;;5095499;28;20062;-78
2022/11/03 10:41:09;;;;;;;2.65;2.45;;;15.70;99.90;;;;;;5098480;28;20016;-78
2022/11/03 10:43:35;;;;;;;3.85;2.83;;;15.80;99.90;;;;;;5098936;28;20453;-78
2022/11/03 10:46:27;;;;;;;3.17;2.22;;;15.80;99.90;;;;;;5093658;28;20024;-78
2022/11/03 10:49:09;;;;;;;3.88;2.28;;;15.90;99.90;;;;;;5091730;28;20036;-78
2022/11/03 10:51:36;;;;;;;;;;;15.90;99.90;;;;;;5094367;28;20020;-78
2022/11/03 10:54:03;;;;;;;3.13;2.08;;;15.90;99.90;;;;;;5095504;28;19904;-78
2022/11/03 10:56:31;;;;;;;2.75;2.55;;;15.90;99.90;;;;;;5095062;28;20085;-78
2022/11/03 10:58:58;;;;;;;2.40;2.20;;;15.90;99.90;;;;;;5093751;28;20038;-78
2022/11/03 11:01:24;;;;;;;4.55;2.75;;;16.00;99.90;;;;;;5095164;28;20031;-78
2022/11/03 11:03:50;;;;;;;4.43;2.55;;;16.00;99.90;;;;;;5094330;28;20024;-78
2022/11/03 11:06:20;;;;;;;2.65;2.45;;;16.00;99.90;;;;;;5094972;28;20489;-77
2022/11/03 11:08:48;;;;;;;2.90;2.47;;;16.10;99.90;;;;;;5094149;28;20024;-78
2022/11/03 11:11:17;;;;;;;4.03;2.78;;;16.10;99.90;;;;;;5094575;28;20089;-78
2022/11/03 11:13:43;;;;;;;4.15;2.58;;;16.10;99.90;;;;;;5095004;28;20020;-78
2022/11/03 11:16:46;;;;;;;3.35;2.58;;;16.10;99.90;;;;;;5093482;28;20435;-77
2022/11/03 11:19:11;;;;;;;3.00;2.33;;;16.00;99.90;;;;;;5093192;28;20028;-78
2022/11/03 11:21:37;;;;;;;2.63;2.33;;;16.00;99.90;;;;;;5094554;28;20386;-78
2022/11/03 11:24:03;;;;;;;3.75;2.20;;;16.00;99.90;;;;;;5092960;28;20127;-78
2022/11/03 11:26:32;;;;;;;2.47;2.20;;;16.00;99.90;;;;;;5094439;28;20027;-78
2022/11/03 11:29:10;;;;;;;2.35;2.15;;;16.00;99.90;;;;;;5094858;28;20034;-78
2022/11/03 11:31:42;;;;;;;3.78;2.40;;;16.00;99.90;;;;;;5093135;28;20024;-78
2022/11/03 11:34:17;;;;;;;5.78;2.40;;;16.10;99.90;;;;;;5094137;28;20032;-77
2022/11/03 11:36:52;;;;;;;3.05;2.50;;;16.10;99.90;;;;;;5094241;28;20021;-77
2022/11/03 11:39:27;;;;;;;2.58;2.22;;;16.10;99.90;;;;;;5094173;28;20039;-78
2022/11/03 11:42:18;;;;;;;3.53;2.13;;;16.10;99.90;;;;;;5102158;28;20016;-77
2022/11/03 11:44:45;;;;;;;;;;;16.10;99.90;;;;;;5093466;28;20035;-77
2022/11/03 11:47:23;;;;;;;4.32;2.85;;;16.10;99.90;;;;;;5094092;28;20365;-77
2022/11/03 11:50:09;;;;;;;4.57;2.55;;;16.10;99.90;;;;;;5094155;28;20095;-77
2022/11/03 11:52:47;;;;;;;3.50;2.70;;;16.10;99.90;;;;;;5083196;28;20055;-78
2022/11/03 11:55:34;;;;;;;3.08;2.70;;;16.20;99.90;;;;;;5093509;28;20020;-78
2022/11/03 11:58:03;;;;;;;3.85;2.60;;;16.20;99.90;;;;;;5093971;28;20020;-78
2022/11/03 12:00:32;;;;;;;2.75;2.47;;;16.20;99.90;;;;;;5093854;28;20032;-78
2022/11/03 12:03:00;;;;;;;3.38;2.70;;;16.20;99.90;;;;;;5093936;28;20020;-77
2022/11/03 12:05:30;;;;;;;2.63;2.35;;;16.20;99.90;;;;;;5093933;28;20028;-77
2022/11/03 12:07:56;;;;;;;2.85;2.47;;;16.20;99.90;;;;;;5092062;28;20016;-78
2022/11/03 12:10:25;;;;;;;2.92;2.50;;;16.20;99.90;;;;;;5093256;28;20021;-78
2022/11/03 12:12:51;;;;;;;2.92;2.20;;;16.30;99.90;;;;;;5091945;28;20020;-77
2022/11/03 12:15:50;;;;;;;2.97;2.20;;;16.40;99.90;;;;;;5093665;28;20111;-77
2022/11/03 12:18:42;;;;;;;2.78;2.58;;;16.60;99.90;;;;;;5093391;28;20026;-78
2022/11/03 12:21:13;;;;;;;3.15;2.40;;;16.60;99.90;;;;;;5091957;28;20032;-78
2022/11/03 12:23:45;;;;;;;2.78;2.22;;;16.70;99.90;;;;;;5092657;28;20577;-78
2022/11/03 12:26:31;;;;;;;2.60;2.20;;;16.70;99.90;;;;;;5092116;28;20020;-78
2022/11/03 12:28:57;;;;;;;3.92;2.55;;;16.80;99.90;;;;;;5093657;28;20104;-78
2022/11/03 12:31:22;;;;;;;3.50;2.45;;;16.90;99.90;;;;;;5093488;28;20051;-78
2022/11/03 12:33:48;;;;;;;2.42;2.22;;;16.90;99.90;;;;;;5093025;28;20017;-78
2022/11/03 12:36:14;;;;;;;2.42;2.10;;;16.90;99.90;;;;;;5093064;28;20481;-78
2022/11/03 12:38:39;;;;;;;2.75;2.20;;;17.00;99.90;;;;;;5093091;28;20516;-78
2022/11/03 12:41:20;;;;;;;2.97;2.47;;;17.10;99.90;;;;;;5095501;28;20491;-78
2022/11/03 12:43:50;;;;;;;3.37;2.60;;;17.10;99.90;;;;;;5093694;28;20116;-78
2022/11/03 12:46:18;;;;;;;5.83;2.60;;;17.10;99.90;;;;;;5092941;28;20050;-78
2022/11/03 12:48:45;;;;;;;4.30;3.05;;;17.10;99.90;;;;;;5093006;28;20075;-78
2022/11/03 12:51:24;;;;;;;4.72;3.10;;;17.20;99.90;;;;;;5092875;28;20560;-78
2022/11/03 12:53:50;;;;;;;4.00;2.60;;;17.30;99.90;;;;;;5092692;28;20073;-78
2022/11/03 12:56:17;;;;;;;5.32;3.05;;;17.30;99.90;;;;;;5092981;28;20028;-78
2022/11/03 12:58:44;;;;;;;2.72;2.53;;;17.30;99.90;;;;;;5091570;28;20024;-78
2022/11/03 13:01:10;;;;;;;4.72;3.10;;;17.30;99.90;;;;;;5091395;28;20033;-78
2022/11/03 13:03:36;;;;;;;6.57;3.17;;;17.40;99.90;;;;;;5091259;28;20188;-78
2022/11/03 13:06:04;;;;;;;3.58;3.13;;;17.40;99.90;;;;;;5092736;28;20585;-78
2022/11/03 13:08:32;;;;;;;3.58;2.78;;;17.50;99.90;;;;;;5092484;28;20020;-78
2022/11/03 13:10:58;;;;;;;3.70;2.80;;;17.60;99.90;;;;;;5090937;28;20024;-78
2022/11/03 13:13:24;;;;;;;3.85;3.00;;;17.80;99.90;;;;;;5092708;28;20026;-78
2022/11/03 13:15:51;;;;;;;4.38;3.38;;;17.90;99.90;;;;;;5091140;28;20101;-78
2022/11/03 13:18:18;;;;;;;6.05;2.90;;;18.00;99.90;;;;;;5092285;28;20020;-78
2022/11/03 13:20:44;;;;;;;3.58;3.17;;;17.90;99.90;;;;;;5092759;28;20176;-78
2022/11/03 13:23:11;;;;;;;3.17;2.88;;;18.00;99.90;;;;;;5091833;28;20040;-78